createdAt,value
2019-04-03T00:00:40.655Z,0.00
2019-04-03T00:01:40.553Z,0.00
2019-04-03T00:02:40.453Z,0.00
2019-04-03T00:03:40.352Z,0.00
2019-04-03T00:04:40.246Z,0.00
2019-04-03T00:05:40.153Z,0.00
2019-04-03T00:06:40.042Z,0.00
2019-04-03T00:07:39.943Z,0.00
2019-04-03T00:08:39.840Z,0.00
2019-04-03T00:09:39.739Z,0.00
2019-04-03T00:10:39.634Z,0.00
2019-04-03T00:11:40.301Z,0.00
2019-04-03T00:12:41.085Z,0.00
2019-04-03T00:13:41.526Z,0.00
2019-04-03T00:14:42.354Z,0.00
2019-04-03T00:15:39.408Z,0.00
2019-04-03T00:16:39.024Z,0.00
2019-04-03T00:17:38.926Z,0.00
2019-04-03T00:18:38.822Z,0.00
2019-04-03T00:19:38.882Z,0.00
2019-04-03T00:20:38.622Z,0.00
2019-04-03T00:21:38.518Z,0.00
2019-04-03T00:22:38.416Z,0.00
2019-04-03T00:23:38.311Z,0.00
2019-04-03T00:24:38.213Z,0.00
2019-04-03T00:25:38.107Z,0.00
2019-04-03T00:26:38.005Z,0.00
2019-04-03T00:27:37.955Z,0.00
2019-04-03T00:28:37.802Z,0.00
2019-04-03T00:29:37.701Z,0.00
2019-04-03T00:30:37.601Z,0.00
2019-04-03T00:31:37.498Z,0.00
2019-04-03T00:32:37.446Z,0.00
2019-04-03T00:33:37.292Z,0.00
2019-04-03T00:34:37.321Z,0.00
2019-04-03T00:35:37.158Z,0.00
2019-04-03T00:36:36.985Z,0.00
2019-04-03T00:37:36.885Z,0.00
2019-04-03T00:38:36.794Z,0.00
2019-04-03T00:39:36.681Z,0.00
2019-04-03T00:40:36.581Z,0.00
2019-04-03T00:41:36.477Z,0.00
2019-04-03T00:42:36.375Z,0.00
2019-04-03T00:43:36.273Z,0.00
2019-04-03T00:44:36.173Z,0.00
2019-04-03T00:45:36.071Z,0.00
2019-04-03T00:46:36.089Z,0.00
2019-04-03T00:47:35.868Z,0.00
2019-04-03T00:48:35.766Z,0.00
2019-04-03T00:49:35.664Z,0.00
2019-04-03T00:50:35.560Z,0.00
2019-04-03T00:51:35.461Z,0.00
2019-04-03T00:52:35.359Z,0.00
2019-04-03T00:53:35.259Z,0.00
2019-04-03T00:54:35.320Z,0.00
2019-04-03T00:55:35.127Z,0.00
2019-04-03T00:56:34.957Z,0.00
2019-04-03T00:57:34.858Z,0.00
2019-04-03T00:58:34.750Z,0.00
2019-04-03T00:59:34.646Z,0.00
2019-04-03T01:00:34.545Z,0.00
2019-04-03T01:01:34.448Z,0.00
2019-04-03T01:02:34.341Z,0.00
2019-04-03T01:03:34.242Z,0.00
2019-04-03T01:04:34.140Z,0.00
2019-04-03T01:05:34.036Z,0.00
2019-04-03T01:06:33.935Z,0.00
2019-04-03T01:07:33.833Z,0.00
2019-04-03T01:08:33.938Z,0.00
2019-04-03T01:09:33.630Z,0.00
2019-04-03T01:10:33.579Z,0.00
2019-04-03T01:11:33.426Z,0.00
2019-04-03T01:12:33.324Z,0.00
2019-04-03T01:13:33.229Z,0.00
2019-04-03T01:14:33.192Z,0.00
2019-04-03T01:15:33.042Z,0.00
2019-04-03T01:16:33.576Z,0.00
2019-04-03T01:17:34.888Z,0.00
2019-04-03T01:18:34.202Z,0.00
2019-04-03T01:19:32.613Z,0.00
2019-04-03T01:20:32.515Z,0.00
2019-04-03T01:21:32.407Z,0.00
2019-04-03T01:22:32.305Z,0.00
2019-04-03T01:23:32.205Z,0.00
2019-04-03T01:24:32.141Z,0.00
2019-04-03T01:25:32.002Z,0.00
2019-04-03T01:26:31.901Z,0.00
2019-04-03T01:27:31.797Z,0.00
2019-04-03T01:28:31.892Z,0.00
2019-04-03T01:29:31.596Z,0.00
2019-04-03T01:30:31.492Z,0.00
2019-04-03T01:31:31.569Z,0.00
2019-04-03T01:32:31.292Z,0.00
2019-04-03T01:33:31.234Z,0.00
2019-04-03T01:34:31.149Z,0.00
2019-04-03T01:35:30.981Z,0.00
2019-04-03T01:36:30.878Z,0.00
2019-04-03T01:37:30.779Z,0.00
2019-04-03T01:38:30.675Z,0.00
2019-04-03T01:39:30.574Z,0.00
2019-04-03T01:40:30.469Z,0.00
2019-04-03T01:41:30.369Z,0.00
2019-04-03T01:42:30.265Z,0.00
2019-04-03T01:43:30.164Z,0.00
2019-04-03T01:44:30.063Z,0.00
2019-04-03T01:45:29.961Z,0.00
2019-04-03T01:46:29.985Z,0.00
2019-04-03T01:47:29.863Z,0.00
2019-04-03T01:48:29.655Z,0.00
2019-04-03T01:49:29.629Z,0.00
2019-04-03T01:50:29.449Z,0.00
2019-04-03T01:51:29.923Z,0.00
2019-04-03T01:52:31.025Z,0.00
2019-04-03T01:53:29.151Z,0.00
2019-04-03T01:54:29.071Z,0.00
2019-04-03T01:55:28.937Z,0.00
2019-04-03T01:56:28.836Z,0.00
2019-04-03T01:57:28.736Z,0.00
2019-04-03T01:58:28.632Z,0.00
2019-04-03T01:59:28.529Z,0.00
2019-04-03T02:00:28.430Z,0.00
2019-04-03T02:01:28.324Z,0.00
2019-04-03T02:02:28.220Z,0.00
2019-04-03T02:03:28.119Z,0.00
2019-04-03T02:04:28.024Z,0.00
2019-04-03T02:05:27.915Z,0.00
2019-04-03T02:06:27.815Z,0.00
2019-04-03T02:07:28.010Z,0.00
2019-04-03T02:08:27.609Z,0.00
2019-04-03T02:09:27.506Z,0.00
2019-04-03T02:10:27.446Z,0.00
2019-04-03T02:11:27.299Z,0.00
2019-04-03T02:12:27.200Z,0.00
2019-04-03T02:13:27.103Z,0.00
2019-04-03T02:14:27.069Z,0.00
2019-04-03T02:15:26.898Z,0.00
2019-04-03T02:16:26.969Z,0.00
2019-04-03T02:17:27.184Z,0.00
2019-04-03T02:18:26.582Z,0.00
2019-04-03T02:19:26.670Z,0.00
2019-04-03T02:20:27.154Z,0.00
2019-04-03T02:21:27.714Z,0.00
2019-04-03T02:22:27.516Z,0.00
2019-04-03T02:23:26.098Z,0.00
2019-04-03T02:24:25.969Z,0.00
2019-04-03T02:25:25.867Z,0.00
2019-04-03T02:26:25.765Z,0.00
2019-04-03T02:27:25.724Z,0.00
2019-04-03T02:28:25.594Z,0.00
2019-04-03T02:29:25.455Z,0.00
2019-04-03T02:30:25.359Z,0.00
2019-04-03T02:31:25.253Z,0.00
2019-04-03T02:32:25.147Z,0.00
2019-04-03T02:33:28.560Z,0.00
2019-04-03T02:34:25.000Z,0.00
2019-04-03T02:35:24.844Z,0.00
2019-04-03T02:36:24.747Z,0.00
2019-04-03T02:37:24.638Z,0.00
2019-04-03T02:38:24.537Z,0.00
2019-04-03T02:39:27.076Z,0.00
2019-04-03T02:40:24.344Z,0.00
2019-04-03T02:41:24.434Z,0.00
2019-04-03T02:42:24.123Z,0.00
2019-04-03T02:43:24.287Z,0.00
2019-04-03T02:44:23.917Z,0.00
2019-04-03T02:45:24.529Z,0.00
2019-04-03T02:46:26.931Z,0.00
2019-04-03T02:47:23.821Z,0.00
2019-04-03T02:48:23.508Z,0.00
2019-04-03T02:49:23.413Z,0.00
2019-04-03T02:50:23.304Z,0.00
2019-04-03T02:51:23.200Z,0.00
2019-04-03T02:52:25.307Z,0.00
2019-04-03T02:53:23.067Z,0.00
2019-04-03T02:54:22.901Z,0.00
2019-04-03T02:55:22.788Z,0.00
2019-04-03T02:56:22.836Z,0.00
2019-04-03T02:57:22.589Z,0.00
2019-04-03T02:58:23.044Z,0.00
2019-04-03T02:59:25.111Z,0.00
2019-04-03T03:00:22.281Z,0.00
2019-04-03T03:01:22.173Z,0.00
2019-04-03T03:02:22.518Z,0.00
2019-04-03T03:03:21.974Z,0.00
2019-04-03T03:04:22.333Z,0.00
2019-04-03T03:05:21.762Z,0.00
2019-04-03T03:06:21.687Z,0.00
2019-04-03T03:07:21.561Z,0.00
2019-04-03T03:08:23.049Z,0.00
2019-04-03T03:09:21.351Z,0.00
2019-04-03T03:10:21.392Z,0.00
2019-04-03T03:11:23.260Z,0.00
2019-04-03T03:12:21.157Z,0.00
2019-04-03T03:13:20.970Z,0.00
2019-04-03T03:14:20.834Z,0.00
2019-04-03T03:15:20.734Z,0.00
2019-04-03T03:16:20.650Z,0.00
2019-04-03T03:17:22.552Z,0.00
2019-04-03T03:18:20.472Z,0.00
2019-04-03T03:19:20.543Z,0.00
2019-04-03T03:20:20.223Z,0.00
2019-04-03T03:21:20.386Z,0.00
2019-04-03T03:22:20.014Z,0.00
2019-04-03T03:23:22.453Z,0.00
2019-04-03T03:24:19.850Z,0.00
2019-04-03T03:25:19.709Z,0.00
2019-04-03T03:26:19.606Z,0.00
2019-04-03T03:27:19.501Z,0.00
2019-04-03T03:28:19.446Z,0.00
2019-04-03T03:29:24.096Z,0.00
2019-04-03T03:30:36.312Z,0.00
2019-04-03T03:31:19.436Z,0.00
2019-04-03T03:32:25.966Z,0.00
2019-04-03T03:33:32.687Z,0.00
2019-04-03T03:34:43.658Z,0.00
2019-04-03T03:35:27.206Z,0.00
2019-04-03T03:36:22.693Z,0.00
2019-04-03T03:37:18.700Z,0.00
2019-04-03T03:38:18.400Z,0.00
2019-04-03T03:39:18.318Z,0.00
2019-04-03T03:40:18.186Z,0.00
2019-04-03T03:41:22.189Z,0.00
2019-04-03T03:42:17.960Z,0.00
2019-04-03T03:43:17.857Z,0.00
2019-04-03T03:44:17.755Z,0.00
2019-04-03T03:45:19.799Z,0.00
2019-04-03T03:46:18.017Z,0.00
2019-04-03T03:47:17.447Z,0.00
2019-04-03T03:48:17.497Z,0.00
2019-04-03T03:49:17.956Z,0.00
2019-04-03T03:50:17.430Z,0.00
2019-04-03T03:51:17.044Z,0.00
2019-04-03T03:52:16.989Z,0.00
2019-04-03T03:53:16.844Z,0.00
2019-04-03T03:54:18.439Z,0.00
2019-04-03T03:55:16.621Z,0.00
2019-04-03T03:56:16.519Z,0.00
2019-04-03T03:57:16.437Z,0.00
2019-04-03T03:58:16.313Z,0.00
2019-04-03T03:59:17.606Z,0.00
2019-04-03T04:00:16.104Z,0.00
2019-04-03T04:01:16.004Z,0.00
2019-04-03T04:02:15.998Z,0.00
2019-04-03T04:03:16.001Z,0.00
2019-04-03T04:04:16.132Z,0.00
2019-04-03T04:05:19.625Z,0.00
2019-04-03T04:06:15.500Z,0.00
2019-04-03T04:07:15.386Z,4.00
2019-04-03T04:08:15.282Z,4.00
2019-04-03T04:09:17.475Z,0.00
2019-04-03T04:10:15.389Z,4.00
2019-04-03T04:11:15.001Z,4.00
2019-04-03T04:12:15.251Z,4.00
2019-04-03T04:13:15.741Z,4.00
2019-04-03T04:14:14.976Z,4.00
2019-04-03T04:15:14.565Z,8.00
2019-04-03T04:16:14.462Z,8.00
2019-04-03T04:17:17.096Z,8.00
2019-04-03T04:18:15.351Z,8.00
2019-04-03T04:19:14.151Z,16.00
2019-04-03T04:20:14.146Z,16.00
2019-04-03T04:21:13.947Z,20.00
2019-04-03T04:22:16.336Z,20.00
2019-04-03T04:23:13.882Z,24.00
2019-04-03T04:24:13.634Z,28.00
2019-04-03T04:25:13.528Z,32.00
2019-04-03T04:26:13.532Z,36.00
2019-04-03T04:27:13.366Z,40.00
2019-04-03T04:28:13.224Z,48.00
2019-04-03T04:29:13.119Z,52.00
2019-04-03T04:30:13.016Z,60.00
2019-04-03T04:31:13.373Z,64.00
2019-04-03T04:32:15.006Z,72.00
2019-04-03T04:33:12.710Z,84.00
2019-04-03T04:34:12.604Z,92.00
2019-04-03T04:35:12.503Z,108.00
2019-04-03T04:36:12.446Z,116.00
2019-04-03T04:37:12.538Z,132.00
2019-04-03T04:38:12.192Z,148.00
2019-04-03T04:39:12.089Z,164.00
2019-04-03T04:40:12.091Z,176.00
2019-04-03T04:41:11.887Z,188.00
2019-04-03T04:42:11.781Z,204.00
2019-04-03T04:43:11.676Z,224.00
2019-04-03T04:44:14.155Z,240.00
2019-04-03T04:45:11.800Z,260.00
2019-04-03T04:46:13.139Z,280.00
2019-04-03T04:47:11.502Z,304.00
2019-04-03T04:48:11.321Z,328.00
2019-04-03T04:49:11.061Z,352.00
2019-04-03T04:50:10.970Z,376.00
2019-04-03T04:51:10.904Z,408.00
2019-04-03T04:52:10.768Z,440.00
2019-04-03T04:53:10.648Z,472.00
2019-04-03T04:54:10.574Z,508.00
2019-04-03T04:55:10.581Z,548.00
2019-04-03T04:56:10.337Z,584.00
2019-04-03T04:57:10.237Z,624.00
2019-04-03T04:58:11.530Z,668.00
2019-04-03T04:59:10.030Z,708.00
2019-04-03T05:00:09.929Z,760.00
2019-04-03T05:01:10.060Z,808.00
2019-04-03T05:02:09.725Z,860.00
2019-04-03T05:03:09.743Z,908.00
2019-04-03T05:04:09.517Z,956.00
2019-04-03T05:05:09.670Z,996.00
2019-04-03T05:06:09.309Z,1036.00
2019-04-03T05:07:09.343Z,1076.00
2019-04-03T05:08:09.113Z,1112.00
2019-04-03T05:09:09.002Z,1148.00
2019-04-03T05:10:08.921Z,1184.00
2019-04-03T05:11:08.828Z,1212.00
2019-04-03T05:12:09.754Z,1236.00
2019-04-03T05:13:08.591Z,1256.00
2019-04-03T05:14:08.497Z,1284.00
2019-04-03T05:15:08.384Z,1320.00
2019-04-03T05:16:08.283Z,1360.00
2019-04-03T05:17:08.180Z,1392.00
2019-04-03T05:18:08.079Z,1432.00
2019-04-03T05:19:10.234Z,1472.00
2019-04-03T05:20:07.875Z,1512.00
2019-04-03T05:21:07.774Z,1544.00
2019-04-03T05:22:07.666Z,1580.00
2019-04-03T05:23:07.562Z,1620.00
2019-04-03T05:24:12.759Z,1656.00
2019-04-03T05:25:07.455Z,1704.00
2019-04-03T05:26:07.256Z,1744.00
2019-04-03T05:27:07.935Z,1800.00
2019-04-03T05:28:07.051Z,1856.00
2019-04-03T05:29:06.951Z,1916.00
2019-04-03T05:30:07.060Z,1988.00
2019-04-03T05:31:08.159Z,2052.00
2019-04-03T05:32:08.038Z,2124.00
2019-04-03T05:33:06.538Z,2188.00
2019-04-03T05:34:06.645Z,2256.00
2019-04-03T05:35:06.333Z,2324.00
2019-04-03T05:36:06.230Z,2396.00
2019-04-03T05:37:06.164Z,2476.00
2019-04-03T05:38:06.023Z,2564.00
2019-04-03T05:39:05.920Z,2656.00
2019-04-03T05:40:05.818Z,2756.00
2019-04-03T05:41:05.980Z,2860.00
2019-04-03T05:42:05.742Z,2964.00
2019-04-03T05:43:05.509Z,3060.00
2019-04-03T05:44:05.409Z,3152.00
2019-04-03T05:45:05.305Z,3240.00
2019-04-03T05:46:05.739Z,3324.00
2019-04-03T05:47:07.378Z,3412.00
2019-04-03T05:48:05.132Z,3500.00
2019-04-03T05:49:04.895Z,3584.00
2019-04-03T05:50:04.848Z,3668.00
2019-04-03T05:51:04.770Z,3764.00
2019-04-03T05:52:04.728Z,3872.00
2019-04-03T05:53:06.116Z,3968.00
2019-04-03T05:54:04.382Z,4076.00
2019-04-03T05:55:04.279Z,4196.00
2019-04-03T05:56:04.176Z,4304.00
2019-04-03T05:57:04.076Z,4380.00
2019-04-03T05:58:04.128Z,4440.00
2019-04-03T05:59:03.870Z,4504.00
2019-04-03T06:00:06.101Z,4564.00
2019-04-03T06:01:06.391Z,4628.00
2019-04-03T06:02:14.149Z,4716.00
2019-04-03T06:03:03.532Z,4828.00
2019-04-03T06:04:03.358Z,4924.00
2019-04-03T06:05:06.289Z,5040.00
2019-04-03T06:06:03.153Z,5224.00
2019-04-03T06:07:03.054Z,5432.00
2019-04-03T06:08:02.951Z,5672.00
2019-04-03T06:09:02.850Z,5956.00
2019-04-03T06:10:02.889Z,6280.00
2019-04-03T06:11:03.994Z,6508.00
2019-04-03T06:12:02.674Z,6688.00
2019-04-03T06:13:05.140Z,6804.00
2019-04-03T06:14:02.336Z,6864.00
2019-04-03T06:15:02.249Z,6920.00
2019-04-03T06:16:02.131Z,7032.00
2019-04-03T06:17:02.038Z,7148.00
2019-04-03T06:18:01.928Z,7204.00
2019-04-03T06:19:01.881Z,7300.00
2019-04-03T06:20:01.728Z,7352.00
2019-04-03T06:21:01.633Z,7412.00
2019-04-03T06:22:01.524Z,7480.00
2019-04-03T06:23:01.422Z,7616.00
2019-04-03T06:24:01.579Z,7676.00
2019-04-03T06:25:01.223Z,7628.00
2019-04-03T06:26:02.186Z,7564.00
2019-04-03T06:27:01.018Z,7572.00
2019-04-03T06:28:00.918Z,7476.00
2019-04-03T06:29:00.820Z,7252.00
2019-04-03T06:30:00.878Z,7260.00
2019-04-03T06:31:00.627Z,7204.00
2019-04-03T06:32:00.708Z,7192.00
2019-04-03T06:33:01.979Z,7352.00
2019-04-03T06:34:00.317Z,7492.00
2019-04-03T06:35:00.229Z,7512.00
2019-04-03T06:36:00.121Z,7712.00
2019-04-03T06:37:00.020Z,7808.00
2019-04-03T06:38:00.145Z,7844.00
2019-04-03T06:38:59.820Z,8036.00
2019-04-03T06:40:02.327Z,8088.00
2019-04-03T06:40:59.625Z,8088.00
2019-04-03T06:41:59.522Z,8216.00
2019-04-03T06:42:59.425Z,8292.00
2019-04-03T06:43:59.324Z,7892.00
2019-04-03T06:44:59.233Z,7752.00
2019-04-03T06:45:59.125Z,8164.00
2019-04-03T06:47:00.697Z,8208.00
2019-04-03T06:47:58.931Z,8160.00
2019-04-03T06:48:58.836Z,8016.00
2019-04-03T06:49:58.792Z,8228.00
2019-04-03T06:50:58.685Z,8340.00
2019-04-03T06:51:58.598Z,8424.00
2019-04-03T06:52:58.444Z,8332.00
2019-04-03T06:53:59.570Z,8308.00
2019-04-03T06:54:58.404Z,8292.00
2019-04-03T06:55:58.139Z,8388.00
2019-04-03T06:56:58.037Z,8692.00
2019-04-03T06:57:57.943Z,9060.00
2019-04-03T06:58:57.839Z,9220.00
2019-04-03T06:59:57.795Z,9112.00
2019-04-03T07:00:57.643Z,9328.00
2019-04-03T07:01:57.546Z,9408.00
2019-04-03T07:02:57.482Z,9504.00
2019-04-03T07:03:57.348Z,9660.00
2019-04-03T07:04:57.253Z,10012.00
2019-04-03T07:05:57.150Z,10020.00
2019-04-03T07:06:57.054Z,9988.00
2019-04-03T07:07:56.957Z,10120.00
2019-04-03T07:08:57.082Z,10340.00
2019-04-03T07:09:57.204Z,10400.00
2019-04-03T07:10:56.735Z,10412.00
2019-04-03T07:11:57.594Z,10304.00
2019-04-03T07:12:56.468Z,10172.00
2019-04-03T07:13:56.372Z,10220.00
2019-04-03T07:14:56.537Z,10320.00
2019-04-03T07:15:56.863Z,10424.00
2019-04-03T07:16:56.076Z,10484.00
2019-04-03T07:17:55.982Z,10452.00
2019-04-03T07:18:55.881Z,10464.00
2019-04-03T07:19:55.785Z,10460.00
2019-04-03T07:20:55.686Z,10472.00
2019-04-03T07:21:55.978Z,10464.00
2019-04-03T07:22:56.987Z,10440.00
2019-04-03T07:23:55.536Z,10432.00
2019-04-03T07:24:55.293Z,10400.00
2019-04-03T07:25:55.384Z,10408.00
2019-04-03T07:26:55.096Z,10448.00
2019-04-03T07:27:55.008Z,10512.00
2019-04-03T07:28:54.901Z,10552.00
2019-04-03T07:29:54.911Z,10612.00
2019-04-03T07:30:54.704Z,10684.00
2019-04-03T07:31:55.353Z,10748.00
2019-04-03T07:32:57.146Z,10844.00
2019-04-03T07:33:57.185Z,10928.00
2019-04-03T07:34:54.427Z,11008.00
2019-04-03T07:35:54.217Z,11068.00
2019-04-03T07:36:54.153Z,11216.00
2019-04-03T07:37:54.014Z,11332.00
2019-04-03T07:38:53.918Z,11428.00
2019-04-03T07:39:53.817Z,11504.00
2019-04-03T07:40:54.036Z,11376.00
2019-04-03T07:41:54.747Z,11348.00
2019-04-03T07:42:55.356Z,11500.00
2019-04-03T07:43:53.429Z,11560.00
2019-04-03T07:44:53.617Z,11648.00
2019-04-03T07:45:53.224Z,11756.00
2019-04-03T07:46:54.973Z,11868.00
2019-04-03T07:47:53.031Z,11956.00
2019-04-03T07:48:52.932Z,12036.00
2019-04-03T07:49:52.832Z,12076.00
2019-04-03T07:50:53.034Z,12304.00
2019-04-03T07:51:52.991Z,12508.00
2019-04-03T07:52:52.554Z,12600.00
2019-04-03T07:53:52.620Z,12656.00
2019-04-03T07:54:52.925Z,12656.00
2019-04-03T07:55:54.821Z,12776.00
2019-04-03T07:56:52.139Z,12988.00
2019-04-03T07:57:52.039Z,13212.00
2019-04-03T07:58:52.261Z,13412.00
2019-04-03T07:59:51.841Z,13560.00
2019-04-03T08:00:51.741Z,13644.00
2019-04-03T08:01:51.646Z,13636.00
2019-04-03T08:02:51.545Z,13596.00
2019-04-03T08:03:52.098Z,13620.00
2019-04-03T08:04:51.493Z,13600.00
2019-04-03T08:05:51.250Z,13548.00
2019-04-03T08:06:51.151Z,13476.00
2019-04-03T08:07:51.054Z,13496.00
2019-04-03T08:09:00.819Z,13356.00
2019-04-03T08:09:50.857Z,13008.00
2019-04-03T08:10:50.756Z,12588.00
2019-04-03T08:11:50.660Z,12184.00
2019-04-03T08:12:50.603Z,12188.00
2019-04-03T08:13:50.461Z,12188.00
2019-04-03T08:14:50.369Z,12168.00
2019-04-03T08:15:50.265Z,12136.00
2019-04-03T08:16:50.182Z,12232.00
2019-04-03T08:17:50.825Z,12176.00
2019-04-03T08:18:52.061Z,12116.00
2019-04-03T08:19:49.872Z,11976.00
2019-04-03T08:20:49.960Z,11840.00
2019-04-03T08:21:49.672Z,11752.00
2019-04-03T08:22:49.577Z,11576.00
2019-04-03T08:23:49.477Z,11404.00
2019-04-03T08:24:52.199Z,11292.00
2019-04-03T08:25:49.286Z,11196.00
2019-04-03T08:26:51.152Z,11064.00
2019-04-03T08:27:49.371Z,10988.00
2019-04-03T08:28:49.075Z,10936.00
2019-04-03T08:29:48.892Z,10900.00
2019-04-03T08:30:49.009Z,10872.00
2019-04-03T08:31:49.025Z,10812.00
2019-04-03T08:32:49.070Z,10768.00
2019-04-03T08:33:48.622Z,10764.00
2019-04-03T08:34:48.765Z,10760.00
2019-04-03T08:35:48.300Z,10780.00
2019-04-03T08:36:48.203Z,10756.00
2019-04-03T08:37:48.102Z,10720.00
2019-04-03T08:38:48.013Z,10728.00
2019-04-03T08:39:49.141Z,10764.00
2019-04-03T08:40:48.077Z,10760.00
2019-04-03T08:41:47.711Z,10744.00
2019-04-03T08:42:47.611Z,10696.00
2019-04-03T08:43:47.515Z,10644.00
2019-04-03T08:44:47.419Z,10624.00
2019-04-03T08:45:47.418Z,10612.00
2019-04-03T08:46:47.483Z,10508.00
2019-04-03T08:47:47.120Z,10404.00
2019-04-03T08:48:47.021Z,10360.00
2019-04-03T08:49:46.925Z,10272.00
2019-04-03T08:50:46.826Z,10164.00
2019-04-03T08:51:46.743Z,10080.00
2019-04-03T08:52:46.739Z,9984.00
2019-04-03T08:53:46.568Z,9896.00
2019-04-03T08:54:46.432Z,9836.00
2019-04-03T08:55:46.897Z,9836.00
2019-04-03T08:56:48.312Z,9896.00
2019-04-03T08:57:46.907Z,9976.00
2019-04-03T08:58:46.074Z,10076.00
2019-04-03T08:59:46.123Z,10140.00
2019-04-03T09:00:45.845Z,10220.00
2019-04-03T09:01:45.977Z,10268.00
2019-04-03T09:02:45.646Z,10300.00
2019-04-03T09:03:46.393Z,10304.00
2019-04-03T09:04:47.498Z,10304.00
2019-04-03T09:05:45.370Z,10124.00
2019-04-03T09:06:45.255Z,10160.00
2019-04-03T09:07:45.190Z,10232.00
2019-04-03T09:08:45.058Z,10276.00
2019-04-03T09:09:44.956Z,10320.00
2019-04-03T09:10:44.860Z,10352.00
2019-04-03T09:11:44.764Z,10372.00
2019-04-03T09:12:44.664Z,10384.00
2019-04-03T09:13:44.921Z,10368.00
2019-04-03T09:14:44.522Z,10372.00
2019-04-03T09:15:44.370Z,10368.00
2019-04-03T09:16:44.273Z,10420.00
2019-04-03T09:17:44.174Z,10440.00
2019-04-03T09:18:44.167Z,10476.00
2019-04-03T09:19:43.976Z,10540.00
2019-04-03T09:20:44.211Z,10628.00
2019-04-03T09:21:44.956Z,10672.00
2019-04-03T09:22:43.683Z,10692.00
2019-04-03T09:23:43.585Z,10696.00
2019-04-03T09:24:43.489Z,10700.00
2019-04-03T09:25:43.391Z,10672.00
2019-04-03T09:26:43.292Z,10668.00
2019-04-03T09:27:43.251Z,10660.00
2019-04-03T09:28:43.096Z,10672.00
2019-04-03T09:29:45.159Z,10668.00
2019-04-03T09:30:42.900Z,10668.00
2019-04-03T09:31:42.977Z,10728.00
2019-04-03T09:32:42.705Z,10760.00
2019-04-03T09:33:42.762Z,10808.00
2019-04-03T09:34:42.555Z,10816.00
2019-04-03T09:35:43.025Z,10824.00
2019-04-03T09:36:42.318Z,10836.00
2019-04-03T09:37:45.075Z,10828.00
2019-04-03T09:38:42.123Z,10840.00
2019-04-03T09:39:42.687Z,10880.00
2019-04-03T09:40:41.925Z,10904.00
2019-04-03T09:41:41.830Z,10960.00
2019-04-03T09:42:41.732Z,10980.00
2019-04-03T09:43:41.634Z,10996.00
2019-04-03T09:44:41.780Z,11044.00
2019-04-03T09:45:41.438Z,11084.00
2019-04-03T09:46:41.348Z,11080.00
2019-04-03T09:47:41.246Z,11136.00
2019-04-03T09:48:41.274Z,11184.00
2019-04-03T09:49:43.456Z,11252.00
2019-04-03T09:50:41.125Z,11272.00
2019-04-03T09:51:40.856Z,11300.00
2019-04-03T09:52:48.481Z,11396.00
2019-04-03T09:53:40.661Z,11652.00
2019-04-03T09:54:40.630Z,11724.00
2019-04-03T09:55:40.565Z,11724.00
2019-04-03T09:56:49.795Z,11772.00
2019-04-03T09:57:40.274Z,11780.00
2019-04-03T09:58:40.178Z,11764.00
2019-04-03T09:59:40.079Z,11760.00
2019-04-03T10:00:41.993Z,11768.00
2019-04-03T10:01:39.883Z,11812.00
2019-04-03T10:02:40.096Z,11836.00
2019-04-03T10:03:39.694Z,11740.00
2019-04-03T10:04:39.895Z,11608.00
2019-04-03T10:05:39.500Z,11520.00
2019-04-03T10:06:39.522Z,11420.00
2019-04-03T10:07:39.301Z,11508.00
2019-04-03T10:08:40.343Z,11624.00
2019-04-03T10:09:39.224Z,11792.00
2019-04-03T10:10:39.093Z,11780.00
2019-04-03T10:11:39.699Z,11860.00
2019-04-03T10:12:39.104Z,11980.00
2019-04-03T10:13:38.719Z,12036.00
2019-04-03T10:14:38.623Z,11812.00
2019-04-03T10:15:38.526Z,11680.00
2019-04-03T10:16:38.524Z,11860.00
2019-04-03T10:17:38.534Z,12096.00
2019-04-03T10:18:39.045Z,12336.00
2019-04-03T10:19:38.135Z,12600.00
2019-04-03T10:20:38.040Z,12848.00
2019-04-03T10:21:37.944Z,12976.00
2019-04-03T10:22:37.844Z,13016.00
2019-04-03T10:23:37.746Z,12720.00
2019-04-03T10:24:37.650Z,12696.00
2019-04-03T10:25:38.005Z,12916.00
2019-04-03T10:26:39.221Z,13272.00
2019-04-03T10:27:37.361Z,13812.00
2019-04-03T10:28:37.264Z,14320.00
2019-04-03T10:29:37.166Z,14032.00
2019-04-03T10:30:37.264Z,13140.00
2019-04-03T10:31:37.326Z,13044.00
2019-04-03T10:32:36.876Z,13356.00
2019-04-03T10:33:36.782Z,13596.00
2019-04-03T10:34:36.718Z,13660.00
2019-04-03T10:35:38.681Z,14144.00
2019-04-03T10:36:36.525Z,14980.00
2019-04-03T10:37:36.641Z,15460.00
2019-04-03T10:38:36.298Z,15696.00
2019-04-03T10:39:36.202Z,16152.00
2019-04-03T10:40:36.422Z,16380.00
2019-04-03T10:41:36.195Z,16412.00
2019-04-03T10:42:35.913Z,16616.00
2019-04-03T10:43:37.301Z,16408.00
2019-04-03T10:44:35.719Z,16432.00
2019-04-03T10:45:35.884Z,16752.00
2019-04-03T10:46:35.531Z,17188.00
2019-04-03T10:47:42.363Z,17180.00
2019-04-03T10:48:35.337Z,16772.00
2019-04-03T10:49:35.242Z,16480.00
2019-04-03T10:50:37.900Z,16248.00
2019-04-03T10:51:35.087Z,16100.00
2019-04-03T10:52:34.953Z,16148.00
2019-04-03T10:53:35.198Z,16416.00
2019-04-03T10:54:37.400Z,16784.00
2019-04-03T10:55:34.745Z,17244.00
2019-04-03T10:56:34.572Z,17920.00
2019-04-03T10:57:34.989Z,18560.00
2019-04-03T10:58:34.522Z,18944.00
2019-04-03T10:59:34.285Z,19424.00
2019-04-03T11:00:34.191Z,19872.00
2019-04-03T11:01:34.095Z,20288.00
2019-04-03T11:02:33.999Z,20608.00
2019-04-03T11:03:33.963Z,20896.00
2019-04-03T11:04:34.016Z,20864.00
2019-04-03T11:05:33.756Z,20576.00
2019-04-03T11:06:35.282Z,20320.00
2019-04-03T11:07:33.525Z,20064.00
2019-04-03T11:08:33.728Z,19648.00
2019-04-03T11:09:33.385Z,19072.00
2019-04-03T11:10:33.251Z,18592.00
2019-04-03T11:11:33.389Z,18208.00
2019-04-03T11:12:33.316Z,17844.00
2019-04-03T11:13:34.360Z,17536.00
2019-04-03T11:14:32.866Z,17248.00
2019-04-03T11:15:32.773Z,16912.00
2019-04-03T11:16:32.680Z,16844.00
2019-04-03T11:17:32.896Z,16984.00
2019-04-03T11:18:32.501Z,17268.00
2019-04-03T11:19:32.429Z,17328.00
2019-04-03T11:20:32.388Z,17768.00
2019-04-03T11:21:32.271Z,18336.00
2019-04-03T11:22:41.072Z,19008.00
2019-04-03T11:23:40.071Z,19200.00
2019-04-03T11:24:31.952Z,19680.00
2019-04-03T11:25:31.839Z,19872.00
2019-04-03T11:26:32.029Z,19744.00
2019-04-03T11:27:42.805Z,19264.00
2019-04-03T11:28:31.694Z,18528.00
2019-04-03T11:29:31.663Z,18024.00
2019-04-03T11:30:31.712Z,17604.00
2019-04-03T11:31:33.170Z,16928.00
2019-04-03T11:32:31.177Z,16784.00
2019-04-03T11:33:31.085Z,16600.00
2019-04-03T11:34:31.078Z,16728.00
2019-04-03T11:35:30.896Z,16908.00
2019-04-03T11:36:31.241Z,16824.00
2019-04-03T11:37:33.076Z,16712.00
2019-04-03T11:38:30.610Z,16544.00
2019-04-03T11:39:30.519Z,16196.00
2019-04-03T11:40:30.425Z,15864.00
2019-04-03T11:41:30.399Z,15736.00
2019-04-03T11:42:30.550Z,15624.00
2019-04-03T11:43:31.433Z,15492.00
2019-04-03T11:44:30.047Z,15764.00
2019-04-03T11:45:29.951Z,16956.00
2019-04-03T11:46:29.856Z,18496.00
2019-04-03T11:47:30.117Z,19168.00
2019-04-03T11:48:29.670Z,19296.00
2019-04-03T11:49:29.573Z,19520.00
2019-04-03T11:50:29.479Z,20032.00
2019-04-03T11:51:30.163Z,19872.00
2019-04-03T11:52:29.289Z,19264.00
2019-04-03T11:53:29.237Z,19520.00
2019-04-03T11:54:29.099Z,19680.00
2019-04-03T11:55:29.003Z,19360.00
2019-04-03T11:56:28.912Z,18688.00
2019-04-03T11:57:28.816Z,17264.00
2019-04-03T11:58:28.759Z,16164.00
2019-04-03T11:59:28.627Z,15428.00
2019-04-03T12:00:28.757Z,14376.00
2019-04-03T12:01:28.809Z,13616.00
2019-04-03T12:02:28.384Z,13520.00
2019-04-03T12:03:28.308Z,12932.00
2019-04-03T12:04:28.156Z,12908.00
2019-04-03T12:05:28.187Z,12968.00
2019-04-03T12:06:27.963Z,13492.00
2019-04-03T12:07:28.237Z,14208.00
2019-04-03T12:08:28.514Z,14540.00
2019-04-03T12:09:29.214Z,14932.00
2019-04-03T12:10:27.590Z,15768.00
2019-04-03T12:11:27.503Z,17100.00
2019-04-03T12:12:27.397Z,17604.00
2019-04-03T12:13:27.417Z,17216.00
2019-04-03T12:14:27.207Z,16300.00
2019-04-03T12:15:27.113Z,15504.00
2019-04-03T12:16:27.018Z,14648.00
2019-04-03T12:17:29.045Z,13932.00
2019-04-03T12:18:26.834Z,13300.00
2019-04-03T12:19:26.736Z,12568.00
2019-04-03T12:20:26.658Z,12300.00